sensor_id;sensor_type;location;lat;lon;timestamp;temperature;humidity
68433;DHT22;55412;51.350;17.056;2022-12-29T00:01:33;7.40;67.20
68433;DHT22;55412;51.350;17.056;2022-12-29T00:03:59;7.40;67.80
68433;DHT22;55412;51.350;17.056;2022-12-29T00:06:29;7.30;68.10
68433;DHT22;55412;51.350;17.056;2022-12-29T00:08:55;7.30;68.40
68433;DHT22;55412;51.350;17.056;2022-12-29T00:11:24;7.20;68.70
68433;DHT22;55412;51.350;17.056;2022-12-29T00:13:52;7.20;68.90
68433;DHT22;55412;51.350;17.056;2022-12-29T00:16:38;7.10;69.10
68433;DHT22;55412;51.350;17.056;2022-12-29T00:19:06;7.10;69.10
68433;DHT22;55412;51.350;17.056;2022-12-29T00:21:52;7.00;69.20
68433;DHT22;55412;51.350;17.056;2022-12-29T00:24:37;7.00;69.30
68433;DHT22;55412;51.350;17.056;2022-12-29T00:27:22;7.00;69.00
68433;DHT22;55412;51.350;17.056;2022-12-29T00:30:20;7.00;68.90
68433;DHT22;55412;51.350;17.056;2022-12-29T00:33:17;7.00;69.00
68433;DHT22;55412;51.350;17.056;2022-12-29T00:36:17;7.00;68.90
68433;DHT22;55412;51.350;17.056;2022-12-29T00:38:55;7.00;69.10
68433;DHT22;55412;51.350;17.056;2022-12-29T00:41:44;7.00;69.00
68433;DHT22;55412;51.350;17.056;2022-12-29T00:44:28;7.00;68.70
68433;DHT22;55412;51.350;17.056;2022-12-29T00:46:54;7.00;68.50
68433;DHT22;55412;51.350;17.056;2022-12-29T00:49:20;7.10;68.60
68433;DHT22;55412;51.350;17.056;2022-12-29T00:51:57;7.10;68.40
68433;DHT22;55412;51.350;17.056;2022-12-29T00:54:24;7.10;68.20
68433;DHT22;55412;51.350;17.056;2022-12-29T00:56:51;7.10;68.40
68433;DHT22;55412;51.350;17.056;2022-12-29T00:59:18;7.10;68.40
68433;DHT22;55412;51.350;17.056;2022-12-29T01:01:45;7.20;68.50
68433;DHT22;55412;51.350;17.056;2022-12-29T01:04:12;7.10;68.40
68433;DHT22;55412;51.350;17.056;2022-12-29T01:06:40;7.20;68.70
68433;DHT22;55412;51.350;17.056;2022-12-29T01:09:07;7.20;68.40
68433;DHT22;55412;51.350;17.056;2022-12-29T01:11:52;7.10;68.30
68433;DHT22;55412;51.350;17.056;2022-12-29T01:14:19;7.10;68.10
68433;DHT22;55412;51.350;17.056;2022-12-29T01:16:45;7.10;68.30
68433;DHT22;55412;51.350;17.056;2022-12-29T01:19:13;7.10;68.10
68433;DHT22;55412;51.350;17.056;2022-12-29T01:21:40;7.00;68.20
68433;DHT22;55412;51.350;17.056;2022-12-29T01:24:06;7.00;68.30
68433;DHT22;55412;51.350;17.056;2022-12-29T01:26:33;6.90;68.20
68433;DHT22;55412;51.350;17.056;2022-12-29T01:28:59;6.90;68.40
68433;DHT22;55412;51.350;17.056;2022-12-29T01:31:25;6.80;68.20
68433;DHT22;55412;51.350;17.056;2022-12-29T01:33:51;6.80;68.80
68433;DHT22;55412;51.350;17.056;2022-12-29T01:36:17;6.80;69.20
68433;DHT22;55412;51.350;17.056;2022-12-29T01:38:44;6.70;69.10
68433;DHT22;55412;51.350;17.056;2022-12-29T01:41:13;6.70;68.90
68433;DHT22;55412;51.350;17.056;2022-12-29T01:43:48;6.70;69.20
68433;DHT22;55412;51.350;17.056;2022-12-29T01:49:12;6.60;69.60
68433;DHT22;55412;51.350;17.056;2022-12-29T01:51:46;6.60;69.50
68433;DHT22;55412;51.350;17.056;2022-12-29T01:57:01;6.60;69.30
68433;DHT22;55412;51.350;17.056;2022-12-29T01:59:32;6.60;69.20
68433;DHT22;55412;51.350;17.056;2022-12-29T02:02:02;6.60;68.90
68433;DHT22;55412;51.350;17.056;2022-12-29T02:04:31;6.60;69.00
68433;DHT22;55412;51.350;17.056;2022-12-29T02:07:05;6.60;69.10
68433;DHT22;55412;51.350;17.056;2022-12-29T02:09:36;6.60;69.00
68433;DHT22;55412;51.350;17.056;2022-12-29T02:12:02;6.60;69.10
68433;DHT22;55412;51.350;17.056;2022-12-29T02:14:28;6.60;69.00
68433;DHT22;55412;51.350;17.056;2022-12-29T02:17:08;6.60;68.80
68433;DHT22;55412;51.350;17.056;2022-12-29T02:37:47;6.70;68.20
68433;DHT22;55412;51.350;17.056;2022-12-29T02:40:40;6.70;68.30
68433;DHT22;55412;51.350;17.056;2022-12-29T02:43:33;6.80;67.80
68433;DHT22;55412;51.350;17.056;2022-12-29T02:46:21;6.80;67.60
68433;DHT22;55412;51.350;17.056;2022-12-29T02:52:06;6.90;67.10
68433;DHT22;55412;51.350;17.056;2022-12-29T02:54:36;6.90;66.90
68433;DHT22;55412;51.350;17.056;2022-12-29T02:57:15;7.00;67.10
68433;DHT22;55412;51.350;17.056;2022-12-29T03:00:07;7.00;67.10
68433;DHT22;55412;51.350;17.056;2022-12-29T03:05:57;7.10;66.50
68433;DHT22;55412;51.350;17.056;2022-12-29T03:08:54;7.10;66.50
68433;DHT22;55412;51.350;17.056;2022-12-29T03:11:33;7.10;66.20
68433;DHT22;55412;51.350;17.056;2022-12-29T03:14:37;7.10;66.10
68433;DHT22;55412;51.350;17.056;2022-12-29T03:17:56;7.10;66.30
68433;DHT22;55412;51.350;17.056;2022-12-29T03:20:29;7.10;66.00
68433;DHT22;55412;51.350;17.056;2022-12-29T03:23:00;7.10;66.20
68433;DHT22;55412;51.350;17.056;2022-12-29T03:25:32;7.10;66.10
68433;DHT22;55412;51.350;17.056;2022-12-29T03:28:06;7.10;66.00
68433;DHT22;55412;51.350;17.056;2022-12-29T03:30:39;7.10;66.60
68433;DHT22;55412;51.350;17.056;2022-12-29T03:33:10;7.10;66.70
68433;DHT22;55412;51.350;17.056;2022-12-29T03:35:41;7.10;66.50
68433;DHT22;55412;51.350;17.056;2022-12-29T03:38:13;7.10;66.40
68433;DHT22;55412;51.350;17.056;2022-12-29T03:41:03;7.10;66.70
68433;DHT22;55412;51.350;17.056;2022-12-29T03:43:31;7.10;67.30
68433;DHT22;55412;51.350;17.056;2022-12-29T03:45:57;7.00;67.40
68433;DHT22;55412;51.350;17.056;2022-12-29T03:48:23;7.00;67.30
68433;DHT22;55412;51.350;17.056;2022-12-29T03:50:49;7.00;66.90
68433;DHT22;55412;51.350;17.056;2022-12-29T03:53:16;7.00;66.90
68433;DHT22;55412;51.350;17.056;2022-12-29T03:55:42;7.00;67.40
68433;DHT22;55412;51.350;17.056;2022-12-29T03:58:08;7.00;66.90
68433;DHT22;55412;51.350;17.056;2022-12-29T04:00:34;7.00;66.60
68433;DHT22;55412;51.350;17.056;2022-12-29T04:03:00;7.00;67.00
68433;DHT22;55412;51.350;17.056;2022-12-29T04:05:26;7.00;66.90
68433;DHT22;55412;51.350;17.056;2022-12-29T04:07:52;7.00;66.80
68433;DHT22;55412;51.350;17.056;2022-12-29T04:10:18;7.00;66.80
68433;DHT22;55412;51.350;17.056;2022-12-29T04:12:44;7.10;67.00
68433;DHT22;55412;51.350;17.056;2022-12-29T04:15:12;7.10;67.00
68433;DHT22;55412;51.350;17.056;2022-12-29T04:17:38;7.10;66.80
68433;DHT22;55412;51.350;17.056;2022-12-29T04:20:04;7.10;66.70
68433;DHT22;55412;51.350;17.056;2022-12-29T04:22:56;7.10;66.20
68433;DHT22;55412;51.350;17.056;2022-12-29T04:25:24;7.10;66.10
68433;DHT22;55412;51.350;17.056;2022-12-29T04:27:50;7.10;65.80
68433;DHT22;55412;51.350;17.056;2022-12-29T04:30:16;7.10;64.90
68433;DHT22;55412;51.350;17.056;2022-12-29T04:32:42;7.10;65.40
68433;DHT22;55412;51.350;17.056;2022-12-29T04:35:08;7.20;65.40
68433;DHT22;55412;51.350;17.056;2022-12-29T04:37:34;7.20;65.50
68433;DHT22;55412;51.350;17.056;2022-12-29T04:40:00;7.30;65.70
68433;DHT22;55412;51.350;17.056;2022-12-29T04:42:26;7.20;66.00
68433;DHT22;55412;51.350;17.056;2022-12-29T04:44:52;7.20;66.00
68433;DHT22;55412;51.350;17.056;2022-12-29T04:47:18;7.20;66.00
68433;DHT22;55412;51.350;17.056;2022-12-29T04:49:44;7.20;66.70
68433;DHT22;55412;51.350;17.056;2022-12-29T04:52:10;7.20;66.80
68433;DHT22;55412;51.350;17.056;2022-12-29T04:54:36;7.20;66.60
68433;DHT22;55412;51.350;17.056;2022-12-29T04:57:02;7.10;67.10
68433;DHT22;55412;51.350;17.056;2022-12-29T04:59:28;7.10;67.20
68433;DHT22;55412;51.350;17.056;2022-12-29T05:01:54;7.10;67.30
68433;DHT22;55412;51.350;17.056;2022-12-29T05:04:20;7.00;67.50
68433;DHT22;55412;51.350;17.056;2022-12-29T05:06:47;6.90;67.60
68433;DHT22;55412;51.350;17.056;2022-12-29T05:09:13;6.90;67.60
68433;DHT22;55412;51.350;17.056;2022-12-29T05:11:39;6.90;67.70
68433;DHT22;55412;51.350;17.056;2022-12-29T05:14:05;6.90;67.60
68433;DHT22;55412;51.350;17.056;2022-12-29T05:16:31;6.90;67.60
68433;DHT22;55412;51.350;17.056;2022-12-29T05:18:57;6.80;67.80
68433;DHT22;55412;51.350;17.056;2022-12-29T05:21:23;6.80;67.40
68433;DHT22;55412;51.350;17.056;2022-12-29T05:23:49;6.80;67.80
68433;DHT22;55412;51.350;17.056;2022-12-29T05:26:15;6.80;68.00
68433;DHT22;55412;51.350;17.056;2022-12-29T05:28:41;6.80;67.40
68433;DHT22;55412;51.350;17.056;2022-12-29T05:31:07;6.80;67.60
68433;DHT22;55412;51.350;17.056;2022-12-29T05:33:33;6.80;67.70
68433;DHT22;55412;51.350;17.056;2022-12-29T05:36:06;6.80;67.40
68433;DHT22;55412;51.350;17.056;2022-12-29T05:38:34;6.90;67.30
68433;DHT22;55412;51.350;17.056;2022-12-29T05:41:00;6.90;67.40
68433;DHT22;55412;51.350;17.056;2022-12-29T05:43:26;6.90;67.10
68433;DHT22;55412;51.350;17.056;2022-12-29T05:45:53;6.90;67.00
68433;DHT22;55412;51.350;17.056;2022-12-29T05:48:20;6.90;66.70
68433;DHT22;55412;51.350;17.056;2022-12-29T05:50:50;6.90;66.30
68433;DHT22;55412;51.350;17.056;2022-12-29T05:53:17;7.00;66.30
68433;DHT22;55412;51.350;17.056;2022-12-29T05:55:46;7.00;66.20
68433;DHT22;55412;51.350;17.056;2022-12-29T05:58:13;7.00;66.10
68433;DHT22;55412;51.350;17.056;2022-12-29T06:00:39;7.10;66.30
68433;DHT22;55412;51.350;17.056;2022-12-29T06:03:05;7.10;66.30
68433;DHT22;55412;51.350;17.056;2022-12-29T06:05:31;7.10;66.30
68433;DHT22;55412;51.350;17.056;2022-12-29T06:07:57;7.10;66.50
68433;DHT22;55412;51.350;17.056;2022-12-29T06:10:23;7.10;66.40
68433;DHT22;55412;51.350;17.056;2022-12-29T06:12:49;7.10;66.70
68433;DHT22;55412;51.350;17.056;2022-12-29T06:15:17;7.10;66.60
68433;DHT22;55412;51.350;17.056;2022-12-29T06:17:43;7.10;66.40
68433;DHT22;55412;51.350;17.056;2022-12-29T06:20:10;7.10;66.20
68433;DHT22;55412;51.350;17.056;2022-12-29T06:22:36;7.10;65.90
68433;DHT22;55412;51.350;17.056;2022-12-29T06:25:03;7.10;65.60
68433;DHT22;55412;51.350;17.056;2022-12-29T06:27:31;7.10;65.50
68433;DHT22;55412;51.350;17.056;2022-12-29T06:29:57;7.20;65.50
68433;DHT22;55412;51.350;17.056;2022-12-29T06:32:23;7.20;65.40
68433;DHT22;55412;51.350;17.056;2022-12-29T06:34:49;7.20;65.50
68433;DHT22;55412;51.350;17.056;2022-12-29T06:37:15;7.20;65.20
68433;DHT22;55412;51.350;17.056;2022-12-29T06:39:41;7.20;65.10
68433;DHT22;55412;51.350;17.056;2022-12-29T06:42:09;7.20;65.10
68433;DHT22;55412;51.350;17.056;2022-12-29T06:44:35;7.20;64.80
68433;DHT22;55412;51.350;17.056;2022-12-29T06:47:01;7.10;64.60
68433;DHT22;55412;51.350;17.056;2022-12-29T06:49:27;7.10;65.10
68433;DHT22;55412;51.350;17.056;2022-12-29T06:51:53;7.20;65.10
68433;DHT22;55412;51.350;17.056;2022-12-29T06:54:19;7.20;65.10
68433;DHT22;55412;51.350;17.056;2022-12-29T06:56:45;7.20;65.40
68433;DHT22;55412;51.350;17.056;2022-12-29T06:59:11;7.20;65.60
68433;DHT22;55412;51.350;17.056;2022-12-29T07:01:37;7.10;65.40
68433;DHT22;55412;51.350;17.056;2022-12-29T07:04:03;7.20;65.10
68433;DHT22;55412;51.350;17.056;2022-12-29T07:06:29;7.20;64.80
68433;DHT22;55412;51.350;17.056;2022-12-29T07:08:55;7.30;64.80
68433;DHT22;55412;51.350;17.056;2022-12-29T07:11:23;7.30;64.40
68433;DHT22;55412;51.350;17.056;2022-12-29T07:13:49;7.30;64.00
68433;DHT22;55412;51.350;17.056;2022-12-29T07:16:15;7.40;64.00
68433;DHT22;55412;51.350;17.056;2022-12-29T07:18:42;7.50;63.60
68433;DHT22;55412;51.350;17.056;2022-12-29T07:21:08;7.50;63.40
68433;DHT22;55412;51.350;17.056;2022-12-29T07:23:34;7.60;63.00
68433;DHT22;55412;51.350;17.056;2022-12-29T07:26:05;7.70;63.00
68433;DHT22;55412;51.350;17.056;2022-12-29T07:28:34;7.70;63.00
68433;DHT22;55412;51.350;17.056;2022-12-29T07:31:01;7.80;62.30
68433;DHT22;55412;51.350;17.056;2022-12-29T07:33:31;7.80;62.10
68433;DHT22;55412;51.350;17.056;2022-12-29T07:35:59;7.90;61.80
68433;DHT22;55412;51.350;17.056;2022-12-29T07:38:25;8.00;61.90
68433;DHT22;55412;51.350;17.056;2022-12-29T07:40:55;8.00;61.70
68433;DHT22;55412;51.350;17.056;2022-12-29T07:43:22;8.00;61.10
68433;DHT22;55412;51.350;17.056;2022-12-29T07:45:48;8.10;61.10
68433;DHT22;55412;51.350;17.056;2022-12-29T07:48:14;8.20;60.80
68433;DHT22;55412;51.350;17.056;2022-12-29T07:50:40;8.20;61.00
68433;DHT22;55412;51.350;17.056;2022-12-29T07:53:06;8.20;60.80
68433;DHT22;55412;51.350;17.056;2022-12-29T07:55:32;8.30;60.60
68433;DHT22;55412;51.350;17.056;2022-12-29T07:57:58;8.30;60.70
68433;DHT22;55412;51.350;17.056;2022-12-29T08:00:24;8.30;60.40
68433;DHT22;55412;51.350;17.056;2022-12-29T08:02:50;8.40;60.30
68433;DHT22;55412;51.350;17.056;2022-12-29T08:05:16;8.40;60.30
68433;DHT22;55412;51.350;17.056;2022-12-29T08:07:43;8.40;60.20
68433;DHT22;55412;51.350;17.056;2022-12-29T08:10:10;8.50;60.10
68433;DHT22;55412;51.350;17.056;2022-12-29T08:12:40;8.60;59.90
68433;DHT22;55412;51.350;17.056;2022-12-29T08:15:08;8.60;59.80
68433;DHT22;55412;51.350;17.056;2022-12-29T08:17:35;8.70;59.70
68433;DHT22;55412;51.350;17.056;2022-12-29T08:20:01;8.80;59.70
68433;DHT22;55412;51.350;17.056;2022-12-29T08:22:28;8.80;59.70
68433;DHT22;55412;51.350;17.056;2022-12-29T08:24:54;8.90;59.40
68433;DHT22;55412;51.350;17.056;2022-12-29T08:27:20;8.90;59.40
68433;DHT22;55412;51.350;17.056;2022-12-29T08:29:46;9.00;59.20
68433;DHT22;55412;51.350;17.056;2022-12-29T08:32:12;9.00;59.30
68433;DHT22;55412;51.350;17.056;2022-12-29T08:34:38;9.00;59.80
68433;DHT22;55412;51.350;17.056;2022-12-29T08:37:04;9.10;59.40
68433;DHT22;55412;51.350;17.056;2022-12-29T08:39:30;9.20;59.50
68433;DHT22;55412;51.350;17.056;2022-12-29T08:41:56;9.20;59.60
68433;DHT22;55412;51.350;17.056;2022-12-29T08:44:22;9.20;59.00
68433;DHT22;55412;51.350;17.056;2022-12-29T08:46:49;9.20;59.10
68433;DHT22;55412;51.350;17.056;2022-12-29T08:49:15;9.20;58.90
68433;DHT22;55412;51.350;17.056;2022-12-29T08:51:41;9.30;59.00
68433;DHT22;55412;51.350;17.056;2022-12-29T08:54:07;9.30;58.90
68433;DHT22;55412;51.350;17.056;2022-12-29T08:56:33;9.30;58.40
68433;DHT22;55412;51.350;17.056;2022-12-29T08:58:59;9.40;58.60
68433;DHT22;55412;51.350;17.056;2022-12-29T09:01:25;9.40;58.80
68433;DHT22;55412;51.350;17.056;2022-12-29T09:03:51;9.40;58.70
68433;DHT22;55412;51.350;17.056;2022-12-29T09:06:19;9.40;58.70
68433;DHT22;55412;51.350;17.056;2022-12-29T09:08:45;9.50;58.70
68433;DHT22;55412;51.350;17.056;2022-12-29T09:13:41;9.60;59.00
68433;DHT22;55412;51.350;17.056;2022-12-29T09:16:07;9.60;58.50
68433;DHT22;55412;51.350;17.056;2022-12-29T09:18:34;9.70;58.50
68433;DHT22;55412;51.350;17.056;2022-12-29T09:21:02;9.70;58.50
68433;DHT22;55412;51.350;17.056;2022-12-29T09:23:29;9.80;58.60
68433;DHT22;55412;51.350;17.056;2022-12-29T09:25:56;9.80;58.70
68433;DHT22;55412;51.350;17.056;2022-12-29T09:28:23;9.90;58.90
68433;DHT22;55412;51.350;17.056;2022-12-29T09:30:50;9.90;58.50
68433;DHT22;55412;51.350;17.056;2022-12-29T09:33:16;9.90;58.70
68433;DHT22;55412;51.350;17.056;2022-12-29T09:35:52;10.00;59.20
68433;DHT22;55412;51.350;17.056;2022-12-29T09:38:19;10.00;58.90
68433;DHT22;55412;51.350;17.056;2022-12-29T09:40:50;10.00;58.40
68433;DHT22;55412;51.350;17.056;2022-12-29T09:46:52;10.10;58.00
68433;DHT22;55412;51.350;17.056;2022-12-29T09:49:40;10.20;58.40
68433;DHT22;55412;51.350;17.056;2022-12-29T09:52:19;10.20;58.10
68433;DHT22;55412;51.350;17.056;2022-12-29T09:55:03;10.20;58.30
68433;DHT22;55412;51.350;17.056;2022-12-29T09:57:44;10.20;58.10
68433;DHT22;55412;51.350;17.056;2022-12-29T10:00:23;10.20;58.50
68433;DHT22;55412;51.350;17.056;2022-12-29T10:03:14;10.30;59.50
68433;DHT22;55412;51.350;17.056;2022-12-29T10:06:04;10.30;59.20
68433;DHT22;55412;51.350;17.056;2022-12-29T10:12:11;10.40;58.90
68433;DHT22;55412;51.350;17.056;2022-12-29T10:15:02;10.40;58.30
68433;DHT22;55412;51.350;17.056;2022-12-29T10:21:05;10.60;57.80
68433;DHT22;55412;51.350;17.056;2022-12-29T10:23:44;10.60;58.90
68433;DHT22;55412;51.350;17.056;2022-12-29T10:26:21;10.60;58.40
68433;DHT22;55412;51.350;17.056;2022-12-29T10:31:43;10.60;59.40
68433;DHT22;55412;51.350;17.056;2022-12-29T10:34:21;10.60;59.60
68433;DHT22;55412;51.350;17.056;2022-12-29T10:36:53;10.60;59.20
68433;DHT22;55412;51.350;17.056;2022-12-29T10:44:46;10.70;58.10
68433;DHT22;55412;51.350;17.056;2022-12-29T10:47:19;10.70;57.50
68433;DHT22;55412;51.350;17.056;2022-12-29T10:49:48;10.80;57.60
68433;DHT22;55412;51.350;17.056;2022-12-29T10:52:16;10.80;56.90
68433;DHT22;55412;51.350;17.056;2022-12-29T10:57:47;10.90;56.70
68433;DHT22;55412;51.350;17.056;2022-12-29T11:00:21;10.90;56.90
68433;DHT22;55412;51.350;17.056;2022-12-29T11:08:25;11.00;56.30
68433;DHT22;55412;51.350;17.056;2022-12-29T11:11:03;11.00;56.00
68433;DHT22;55412;51.350;17.056;2022-12-29T11:13:35;11.00;56.30
68433;DHT22;55412;51.350;17.056;2022-12-29T11:16:13;11.00;56.30
68433;DHT22;55412;51.350;17.056;2022-12-29T11:18:40;10.90;56.20
68433;DHT22;55412;51.350;17.056;2022-12-29T11:21:32;10.90;55.60
68433;DHT22;55412;51.350;17.056;2022-12-29T11:24:17;10.90;55.70
68433;DHT22;55412;51.350;17.056;2022-12-29T11:26:44;10.80;56.00
68433;DHT22;55412;51.350;17.056;2022-12-29T11:31:57;10.80;56.20
68433;DHT22;55412;51.350;17.056;2022-12-29T11:34:33;10.70;56.00
68433;DHT22;55412;51.350;17.056;2022-12-29T11:37:18;10.80;56.10
68433;DHT22;55412;51.350;17.056;2022-12-29T11:40:18;10.80;56.00
68433;DHT22;55412;51.350;17.056;2022-12-29T11:42:51;10.80;55.90
68433;DHT22;55412;51.350;17.056;2022-12-29T11:45:21;10.90;55.40
68433;DHT22;55412;51.350;17.056;2022-12-29T11:47:55;10.90;55.70
68433;DHT22;55412;51.350;17.056;2022-12-29T11:50:26;10.90;55.60
68433;DHT22;55412;51.350;17.056;2022-12-29T11:53:19;11.00;55.50
68433;DHT22;55412;51.350;17.056;2022-12-29T11:55:53;11.00;55.40
68433;DHT22;55412;51.350;17.056;2022-12-29T11:58:40;11.00;55.30
68433;DHT22;55412;51.350;17.056;2022-12-29T12:01:23;11.10;55.50
68433;DHT22;55412;51.350;17.056;2022-12-29T12:04:15;11.10;55.60
68433;DHT22;55412;51.350;17.056;2022-12-29T12:09:31;11.10;55.90
68433;DHT22;55412;51.350;17.056;2022-12-29T12:12:01;11.10;55.70
68433;DHT22;55412;51.350;17.056;2022-12-29T12:17:25;11.10;56.00
68433;DHT22;55412;51.350;17.056;2022-12-29T12:20:18;11.00;56.30
68433;DHT22;55412;51.350;17.056;2022-12-29T12:23:14;11.00;56.60
68433;DHT22;55412;51.350;17.056;2022-12-29T12:25:47;11.00;56.40
68433;DHT22;55412;51.350;17.056;2022-12-29T12:31:27;11.00;56.60
68433;DHT22;55412;51.350;17.056;2022-12-29T12:34:04;11.00;55.80
68433;DHT22;55412;51.350;17.056;2022-12-29T12:36:53;11.00;55.40
68433;DHT22;55412;51.350;17.056;2022-12-29T12:39:35;11.00;55.50
68433;DHT22;55412;51.350;17.056;2022-12-29T12:57:42;11.00;55.30
68433;DHT22;55412;51.350;17.056;2022-12-29T13:00:34;11.00;55.30
68433;DHT22;55412;51.350;17.056;2022-12-29T13:03:29;11.00;55.40
68433;DHT22;55412;51.350;17.056;2022-12-29T13:12:27;11.00;55.30
68433;DHT22;55412;51.350;17.056;2022-12-29T13:24:27;10.80;55.80
68433;DHT22;55412;51.350;17.056;2022-12-29T13:31:24;10.80;55.70
68433;DHT22;55412;51.350;17.056;2022-12-29T13:37:12;10.70;56.10
68433;DHT22;55412;51.350;17.056;2022-12-29T13:39:50;10.70;56.20
68433;DHT22;55412;51.350;17.056;2022-12-29T13:42:19;10.70;56.20
68433;DHT22;55412;51.350;17.056;2022-12-29T13:44:51;10.70;56.30
68433;DHT22;55412;51.350;17.056;2022-12-29T13:50:28;10.70;56.60
68433;DHT22;55412;51.350;17.056;2022-12-29T13:53:03;10.70;56.70
68433;DHT22;55412;51.350;17.056;2022-12-29T13:55:58;10.60;56.70
68433;DHT22;55412;51.350;17.056;2022-12-29T14:01:22;10.60;56.80
68433;DHT22;55412;51.350;17.056;2022-12-29T14:04:28;10.60;56.70
68433;DHT22;55412;51.350;17.056;2022-12-29T14:07:03;10.50;56.80
68433;DHT22;55412;51.350;17.056;2022-12-29T14:09:45;10.50;56.90
68433;DHT22;55412;51.350;17.056;2022-12-29T14:12:42;10.50;56.90
68433;DHT22;55412;51.350;17.056;2022-12-29T14:17:40;10.50;56.80
68433;DHT22;55412;51.350;17.056;2022-12-29T14:20:18;10.50;57.00
68433;DHT22;55412;51.350;17.056;2022-12-29T14:23:14;10.50;57.20
68433;DHT22;55412;51.350;17.056;2022-12-29T14:28:41;10.50;57.30
68433;DHT22;55412;51.350;17.056;2022-12-29T14:33:41;10.50;57.50
68433;DHT22;55412;51.350;17.056;2022-12-29T14:37:03;10.50;57.50
68433;DHT22;55412;51.350;17.056;2022-12-29T14:47:41;10.50;57.40
68433;DHT22;55412;51.350;17.056;2022-12-29T14:55:43;10.50;58.50
68433;DHT22;55412;51.350;17.056;2022-12-29T15:01:42;10.30;59.10
68433;DHT22;55412;51.350;17.056;2022-12-29T15:04:20;10.30;59.10
68433;DHT22;55412;51.350;17.056;2022-12-29T15:06:48;10.20;59.40
68433;DHT22;55412;51.350;17.056;2022-12-29T15:09:34;10.10;59.90
68433;DHT22;55412;51.350;17.056;2022-12-29T15:17:53;9.90;60.10
68433;DHT22;55412;51.350;17.056;2022-12-29T15:20:29;9.80;60.50
68433;DHT22;55412;51.350;17.056;2022-12-29T15:23:03;9.80;60.40
68433;DHT22;55412;51.350;17.056;2022-12-29T15:25:36;9.70;60.50
68433;DHT22;55412;51.350;17.056;2022-12-29T15:28:05;9.70;60.50
68433;DHT22;55412;51.350;17.056;2022-12-29T15:30:32;9.60;60.40
68433;DHT22;55412;51.350;17.056;2022-12-29T15:32:58;9.60;60.50
68433;DHT22;55412;51.350;17.056;2022-12-29T15:37:59;9.60;61.00
68433;DHT22;55412;51.350;17.056;2022-12-29T15:40:31;9.50;61.00
68433;DHT22;55412;51.350;17.056;2022-12-29T15:43:05;9.40;61.40
68433;DHT22;55412;51.350;17.056;2022-12-29T15:45:34;9.40;61.50
68433;DHT22;55412;51.350;17.056;2022-12-29T15:48:01;9.30;62.00
68433;DHT22;55412;51.350;17.056;2022-12-29T15:50:34;9.30;62.00
68433;DHT22;55412;51.350;17.056;2022-12-29T15:53:02;9.20;62.40
68433;DHT22;55412;51.350;17.056;2022-12-29T15:55:34;9.10;62.60
68433;DHT22;55412;51.350;17.056;2022-12-29T15:58:04;9.10;62.90
68433;DHT22;55412;51.350;17.056;2022-12-29T16:00:47;9.00;62.90
68433;DHT22;55412;51.350;17.056;2022-12-29T16:03:19;9.00;62.90
68433;DHT22;55412;51.350;17.056;2022-12-29T16:05:54;9.00;62.80
68433;DHT22;55412;51.350;17.056;2022-12-29T16:08:41;9.00;62.90
68433;DHT22;55412;51.350;17.056;2022-12-29T16:11:22;8.90;63.00
68433;DHT22;55412;51.350;17.056;2022-12-29T16:13:52;9.00;62.80
68433;DHT22;55412;51.350;17.056;2022-12-29T16:16:26;9.00;62.80
68433;DHT22;55412;51.350;17.056;2022-12-29T16:18:55;9.00;62.70
68433;DHT22;55412;51.350;17.056;2022-12-29T16:21:34;8.90;62.60
68433;DHT22;55412;51.350;17.056;2022-12-29T16:24:23;8.90;62.60
68433;DHT22;55412;51.350;17.056;2022-12-29T16:30:05;8.90;62.50
68433;DHT22;55412;51.350;17.056;2022-12-29T16:32:46;8.90;62.30
68433;DHT22;55412;51.350;17.056;2022-12-29T16:35:25;8.90;62.50
68433;DHT22;55412;51.350;17.056;2022-12-29T16:38:17;8.90;62.60
68433;DHT22;55412;51.350;17.056;2022-12-29T16:46:24;8.80;62.80
68433;DHT22;55412;51.350;17.056;2022-12-29T16:48:54;8.80;62.90
68433;DHT22;55412;51.350;17.056;2022-12-29T16:51:32;8.70;62.90
68433;DHT22;55412;51.350;17.056;2022-12-29T16:54:00;8.70;63.10
68433;DHT22;55412;51.350;17.056;2022-12-29T16:56:30;8.60;63.30
68433;DHT22;55412;51.350;17.056;2022-12-29T16:59:28;8.60;63.60
68433;DHT22;55412;51.350;17.056;2022-12-29T17:01:57;8.50;63.80
68433;DHT22;55412;51.350;17.056;2022-12-29T17:04:25;8.40;64.10
68433;DHT22;55412;51.350;17.056;2022-12-29T17:06:51;8.40;64.20
68433;DHT22;55412;51.350;17.056;2022-12-29T17:09:22;8.30;64.50
68433;DHT22;55412;51.350;17.056;2022-12-29T17:12:00;8.30;64.60
68433;DHT22;55412;51.350;17.056;2022-12-29T17:17:05;8.20;65.20
68433;DHT22;55412;51.350;17.056;2022-12-29T17:19:37;8.10;65.30
68433;DHT22;55412;51.350;17.056;2022-12-29T17:22:23;8.10;65.80
68433;DHT22;55412;51.350;17.056;2022-12-29T17:24:54;8.00;65.90
68433;DHT22;55412;51.350;17.056;2022-12-29T17:27:26;8.00;66.10
68433;DHT22;55412;51.350;17.056;2022-12-29T17:29:58;7.90;66.50
68433;DHT22;55412;51.350;17.056;2022-12-29T17:32:30;7.90;66.70
68433;DHT22;55412;51.350;17.056;2022-12-29T17:34:56;7.80;66.70
68433;DHT22;55412;51.350;17.056;2022-12-29T17:39:50;7.70;67.10
68433;DHT22;55412;51.350;17.056;2022-12-29T17:42:18;7.70;67.30
68433;DHT22;55412;51.350;17.056;2022-12-29T17:44:45;7.70;67.20
68433;DHT22;55412;51.350;17.056;2022-12-29T17:47:13;7.70;67.20
68433;DHT22;55412;51.350;17.056;2022-12-29T17:49:41;7.60;67.20
68433;DHT22;55412;51.350;17.056;2022-12-29T17:52:15;7.70;67.00
68433;DHT22;55412;51.350;17.056;2022-12-29T17:54:46;7.70;67.00
68433;DHT22;55412;51.350;17.056;2022-12-29T17:57:17;7.70;67.00
68433;DHT22;55412;51.350;17.056;2022-12-29T17:59:44;7.80;66.90
68433;DHT22;55412;51.350;17.056;2022-12-29T18:02:30;7.80;67.10
68433;DHT22;55412;51.350;17.056;2022-12-29T18:04:58;7.80;67.10
68433;DHT22;55412;51.350;17.056;2022-12-29T18:07:28;7.70;67.00
68433;DHT22;55412;51.350;17.056;2022-12-29T18:09:55;7.80;67.00
68433;DHT22;55412;51.350;17.056;2022-12-29T18:12:32;7.80;67.20
68433;DHT22;55412;51.350;17.056;2022-12-29T18:15:03;7.80;67.20
68433;DHT22;55412;51.350;17.056;2022-12-29T18:17:29;7.80;67.20
68433;DHT22;55412;51.350;17.056;2022-12-29T18:19:56;7.70;67.20
68433;DHT22;55412;51.350;17.056;2022-12-29T18:22:23;7.70;67.40
68433;DHT22;55412;51.350;17.056;2022-12-29T18:24:50;7.70;67.30
68433;DHT22;55412;51.350;17.056;2022-12-29T18:27:17;7.70;67.20
68433;DHT22;55412;51.350;17.056;2022-12-29T18:29:44;7.80;67.10
68433;DHT22;55412;51.350;17.056;2022-12-29T18:32:12;7.80;67.00
68433;DHT22;55412;51.350;17.056;2022-12-29T18:34:39;7.90;66.70
68433;DHT22;55412;51.350;17.056;2022-12-29T18:37:06;7.90;66.70
68433;DHT22;55412;51.350;17.056;2022-12-29T18:39:32;7.90;66.50
68433;DHT22;55412;51.350;17.056;2022-12-29T18:41:58;7.90;66.40